Time;durP1;ratioP1;P1;durP2;ratioP2;P2;SDS_P1;SDS_P2;PMS_P1;PMS_P2;Temp;Humidity;BMP_temperature;BMP_pressure;BME280_temperature;BME280_humidity;BME280_pressure;Samples;Min_cycle;Max_cycle;Signal;HPM_P1;HPM_P2
2023/01/12 00:02:22;;;;;;;12.15;3.20;;;8.00;87.30;;;7.23;76.39;100283.22;5011711;28;21135;-70
2023/01/12 00:04:50;;;;;;;9.18;2.90;;;8.00;87.40;;;7.20;77.37;100279.03;5011867;28;20427;-69
2023/01/12 00:07:20;;;;;;;8.68;2.88;;;8.00;87.80;;;7.15;78.02;100278.66;5011505;28;20427;-69
2023/01/12 00:09:48;;;;;;;9.90;3.05;;;7.90;89.00;;;7.10;78.13;100276.44;5011843;28;20408;-69
2023/01/12 00:12:16;;;;;;;10.05;3.10;;;7.90;89.00;;;7.09;78.02;100276.56;5012023;28;20411;-69
2023/01/12 00:14:44;;;;;;;9.00;2.95;;;7.90;88.70;;;7.09;78.32;100281.91;5011870;28;20449;-70
2023/01/12 00:17:15;;;;;;;10.10;2.80;;;7.90;89.00;;;7.06;77.85;100267.06;5011534;28;20405;-70
2023/01/12 00:19:43;;;;;;;11.70;3.10;;;7.90;88.60;;;7.09;77.59;100281.91;5011688;28;20865;-72
2023/01/12 00:22:16;;;;;;;9.03;2.77;;;7.90;88.50;;;7.06;78.03;100272.41;5011769;28;20400;-73
2023/01/12 00:24:48;;;;;;;7.78;2.65;;;7.90;88.70;;;7.06;77.75;100276.88;5011931;28;20409;-71
2023/01/12 00:27:20;;;;;;;9.55;2.65;;;7.90;88.60;;;7.07;77.54;100265.25;5005638;28;20433;-70
2023/01/12 00:29:49;;;;;;;9.15;2.78;;;7.90;88.30;;;7.04;77.91;100271.72;4992017;28;20406;-70
2023/01/12 00:32:20;;;;;;;10.18;2.70;;;7.90;88.70;;;7.05;77.97;100275.22;4991604;28;20414;-71
2023/01/12 00:34:48;;;;;;;9.43;2.95;;;7.90;89.70;;;7.07;77.66;100270.59;4991870;28;20406;-70
2023/01/12 00:37:19;;;;;;;7.80;2.65;;;7.90;88.40;;;7.10;77.55;100271.13;5027483;28;20453;-70
2023/01/12 00:39:48;;;;;;;8.82;2.80;;;7.90;88.20;;;7.10;77.69;100265.78;5030918;28;20412;-70
2023/01/12 00:45:24;;;;;;;8.20;2.90;;;7.90;88.50;;;7.11;77.99;100271.97;5030600;28;20414;-72
2023/01/12 00:47:53;;;;;;;7.63;2.45;;;7.90;88.50;;;7.12;77.75;100255.00;5030379;28;20425;-70
2023/01/12 00:50:21;;;;;;;8.48;2.53;;;7.90;88.60;;;7.15;77.70;100270.69;5031258;28;20426;-70
2023/01/12 00:52:50;;;;;;;10.63;2.80;;;8.00;88.70;;;7.21;77.55;100258.59;5030906;28;20399;-70
2023/01/12 00:55:19;;;;;;;8.52;2.55;;;8.00;88.20;;;7.20;77.64;100257.75;5013161;28;20412;-70
2023/01/12 00:57:47;;;;;;;9.30;2.65;;;8.00;88.30;;;7.19;78.07;100272.06;5011060;28;20409;-70
2023/01/12 01:00:17;;;;;;;6.72;2.50;;;8.00;88.70;;;7.22;77.85;100266.44;5011413;28;20510;-70
2023/01/12 01:02:47;;;;;;;8.98;2.58;;;8.10;88.50;;;7.29;77.43;100267.50;5010966;28;20424;-72
2023/01/12 01:05:16;;;;;;;9.48;2.47;;;8.10;88.30;;;7.23;78.10;100267.25;5011192;28;20417;-70
2023/01/12 01:07:46;;;;;;;9.77;2.60;;;8.10;88.80;;;7.26;77.76;100267.78;5011104;28;20417;-70
2023/01/12 01:10:16;;;;;;;10.77;3.15;;;8.10;88.70;;;7.26;77.95;100257.13;5010513;28;20409;-69
2023/01/12 01:12:46;;;;;;;9.43;3.13;;;8.10;88.80;;;7.28;77.97;100264.97;5010627;28;20408;-70
2023/01/12 01:15:14;;;;;;;9.07;2.53;;;8.10;88.90;;;7.27;78.20;100269.47;5010519;28;20408;-70
2023/01/12 01:17:42;;;;;;;9.10;2.67;;;8.10;89.00;;;7.28;78.15;100265.81;5010047;28;20824;-70
2023/01/12 01:20:12;;;;;;;7.57;2.22;;;8.10;89.00;;;7.28;78.61;100260.50;5010399;28;20417;-70
2023/01/12 01:22:40;;;;;;;7.97;2.72;;;8.10;89.30;;;7.28;78.33;100251.66;5010393;28;20424;-70
2023/01/12 01:25:10;;;;;;;8.52;2.75;;;8.10;89.20;;;7.36;77.69;100265.91;5010035;28;20424;-71
2023/01/12 01:27:38;;;;;;;10.32;3.03;;;8.20;88.50;;;7.32;78.40;100253.03;5009997;28;20424;-71
2023/01/12 01:30:11;;;;;;;6.90;2.55;;;8.10;88.90;;;7.37;77.62;100248.94;5010316;28;20408;-71
2023/01/12 01:32:39;;;;;;;9.03;3.03;;;8.20;88.50;;;7.34;77.73;100243.06;5009866;28;20897;-70
2023/01/12 01:35:08;;;;;;;8.38;2.70;;;8.20;88.50;;;7.37;77.52;100251.59;5009815;28;20416;-70
2023/01/12 01:37:36;;;;;;;7.47;2.40;;;8.20;88.40;;;7.36;77.56;100243.78;5009451;28;20940;-70
2023/01/12 01:40:05;;;;;;;7.93;2.60;;;8.20;88.40;;;7.42;77.34;100251.16;5010052;28;20417;-70
2023/01/12 01:42:33;;;;;;;6.93;2.60;;;8.20;87.90;;;7.41;77.36;100244.97;5009978;28;20416;-71
2023/01/12 01:45:04;;;;;;;11.70;2.90;;;8.20;87.90;;;7.38;77.41;100245.28;5010019;28;20409;-70
2023/01/12 01:47:40;;;;;;;8.18;2.50;;;8.20;88.10;;;7.44;76.81;100241.16;5008848;28;20964;-72
2023/01/12 01:50:19;;;;;;;6.45;2.33;;;8.20;87.50;;;7.47;76.54;100239.03;5009967;28;20413;-69
2023/01/12 01:52:54;;;;;;;9.23;2.67;;;8.30;87.30;;;7.55;76.07;100247.13;5009802;28;20900;-70
2023/01/12 01:55:29;;;;;;;5.70;2.22;;;8.40;86.70;;;7.60;75.51;100223.50;5027706;28;20791;-69
2023/01/12 01:58:03;;;;;;;7.10;2.22;;;8.40;86.30;;;7.64;75.62;100224.88;5029263;28;20395;-71
2023/01/12 02:00:31;;;;;;;8.68;2.35;;;8.50;86.20;;;7.73;74.97;100238.28;5029357;28;20402;-69
2023/01/12 02:03:05;;;;;;;5.90;2.20;;;8.50;85.50;;;7.75;74.67;100225.63;5029536;28;20418;-69
2023/01/12 02:05:33;;;;;;;5.53;1.95;;;8.50;85.60;;;7.74;74.98;100234.63;5029642;28;20414;-70
2023/01/12 02:08:12;;;;;;;6.30;2.03;;;8.50;85.50;;;7.74;75.33;100229.28;5028979;28;20423;-70
2023/01/12 02:10:41;;;;;;;4.97;1.70;;;8.50;85.50;;;7.78;75.30;100225.31;5029342;28;20407;-71
2023/01/12 02:19:03;;;;;;;4.20;1.70;;;8.50;86.80;;;7.67;76.39;100213.09;5028914;28;20921;-69
2023/01/12 02:22:09;;;;;;;4.05;1.60;;;8.50;87.30;;;7.62;77.48;100221.53;5029307;28;20407;-69
2023/01/12 02:25:19;;;;;;;3.80;1.67;;;8.40;87.90;;;7.60;78.00;100212.03;5026802;28;20900;-70
2023/01/12 02:28:19;;;;;;;5.10;1.83;;;8.40;88.70;;;7.56;78.92;100210.66;5028649;28;20907;-70
2023/01/12 02:31:30;;;;;;;5.20;1.90;;;8.40;89.60;;;7.53;79.05;100201.13;5028554;28;20414;-69
2023/01/12 02:34:15;;;;;;;5.22;1.90;;;8.30;89.90;;;7.49;79.81;100209.59;5029127;28;20403;-70
2023/01/12 02:36:57;;;;;;;5.55;1.90;;;8.30;90.20;;;7.49;79.78;100213.09;5028484;28;20509;-71
2023/01/12 02:39:37;;;;;;;5.07;1.83;;;8.30;90.30;;;7.51;79.74;100208.44;5028507;28;20767;-71
2023/01/12 02:45:20;;;;;;;5.85;2.03;;;8.30;90.40;;;7.46;80.19;100210.75;5028591;28;20403;-70
2023/01/12 02:47:56;;;;;;;7.15;2.33;;;8.30;90.50;;;7.49;80.11;100201.59;5027964;28;20419;-71
2023/01/12 02:50:31;;;;;;;6.33;2.27;;;8.30;90.40;;;7.50;79.73;100190.78;5028674;28;20985;-70
2023/01/12 02:53:08;;;;;;;4.78;2.00;;;8.30;90.40;;;7.53;79.79;100189.66;5028618;28;20413;-70
2023/01/12 02:55:39;;;;;;;6.70;2.35;;;8.30;90.30;;;7.54;79.68;100196.63;4988980;28;20417;-71
2023/01/12 02:58:12;;;;;;;5.53;2.60;;;8.30;90.30;;;7.53;79.64;100185.16;4988972;28;20437;-69
2023/01/12 03:00:43;;;;;;;5.80;2.50;;;8.40;90.30;;;7.54;79.90;100192.16;4988543;28;20411;-71
2023/01/12 03:03:16;;;;;;;5.60;2.30;;;8.30;90.30;;;7.60;79.13;100186.19;4989174;28;20406;-70
2023/01/12 03:05:44;;;;;;;6.90;2.47;;;8.40;90.00;;;7.57;79.31;100175.84;4988935;28;20407;-71
2023/01/12 03:08:20;;;;;;;6.47;2.50;;;8.40;90.10;;;7.61;78.76;100187.03;4988983;28;20434;-70
2023/01/12 03:11:11;;;;;;;6.70;2.45;;;8.40;90.00;;;7.68;78.22;100180.09;4989252;28;20418;-69
2023/01/12 03:13:46;;;;;;;6.03;2.10;;;8.50;89.50;;;7.66;78.46;100184.75;4989035;28;20905;-70
2023/01/12 03:16:19;;;;;;;7.78;2.50;;;8.50;89.50;;;7.71;78.22;100182.47;4988917;28;20421;-71
2023/01/12 03:18:55;;;;;;;6.18;2.50;;;8.50;89.00;;;7.76;78.20;100184.66;4988675;28;20434;-71
2023/01/12 03:21:32;;;;;;;4.65;2.03;;;8.50;88.70;;;7.77;77.37;100175.69;4988916;28;20426;-71
2023/01/12 03:24:06;;;;;;;6.97;2.20;;;8.60;88.50;;;7.80;77.65;100186.88;4989306;28;20417;-70
2023/01/12 03:26:40;;;;;;;6.45;2.20;;;8.60;88.50;;;7.74;78.96;100181.34;4988886;28;20418;-70
2023/01/12 03:29:15;;;;;;;5.85;2.13;;;8.50;89.40;;;7.71;79.00;100186.94;5002839;28;20471;-70
2023/01/12 03:31:44;;;;;;;6.40;2.30;;;8.50;89.90;;;7.64;79.60;100184.06;5006791;28;20417;-70
2023/01/12 03:34:14;;;;;;;5.05;2.03;;;8.50;90.20;;;7.62;79.68;100181.56;5006202;28;20409;-70
2023/01/12 03:36:50;;;;;;;4.53;1.75;;;8.40;90.20;;;7.65;79.36;100183.09;5006781;28;20943;-70
2023/01/12 03:39:27;;;;;;;4.35;1.90;;;8.50;90.10;;;7.64;79.39;100176.91;5007222;28;20897;-70
2023/01/12 03:42:03;;;;;;;5.13;1.88;;;8.50;90.10;;;7.63;79.46;100175.25;5008264;28;20417;-72
2023/01/12 03:44:41;;;;;;;4.55;1.90;;;8.50;90.20;;;7.65;79.59;100167.94;5008564;28;20412;-72
2023/01/12 03:47:17;;;;;;;5.82;1.70;;;8.50;90.10;;;7.64;79.43;100166.25;5008032;28;20801;-70
2023/01/12 03:49:53;;;;;;;4.65;1.80;;;8.50;90.20;;;7.67;79.47;100174.94;5007929;28;20449;-72
2023/01/12 03:52:25;;;;;;;4.35;1.73;;;8.40;90.10;;;7.64;79.83;100171.59;5008586;28;20401;-70
2023/01/12 03:54:57;;;;;;;3.85;1.70;;;8.50;90.20;;;7.67;79.63;100166.97;5022904;28;20399;-70
2023/01/12 03:57:26;;;;;;;3.17;1.80;;;8.50;90.20;;;7.68;79.59;100165.94;5028671;28;20407;-69
2023/01/12 03:59:56;;;;;;;4.22;1.92;;;8.50;90.20;;;7.69;79.24;100157.81;5028769;28;20409;-71
2023/01/12 04:02:24;;;;;;;3.90;1.88;;;8.50;90.20;;;7.67;79.85;100158.97;5028860;28;20880;-70
2023/01/12 04:04:54;;;;;;;3.95;1.75;;;8.50;90.40;;;7.70;79.71;100161.31;5028277;28;20803;-70
2023/01/12 04:07:23;;;;;;;3.97;1.88;;;8.50;90.30;;;7.68;79.81;100158.78;5027551;28;20413;-72
2023/01/12 04:09:51;;;;;;;3.87;2.03;;;8.50;90.40;;;7.68;80.33;100155.28;5027760;28;20776;-70
2023/01/12 04:12:19;;;;;;;3.15;1.65;;;8.50;90.50;;;7.64;80.28;100144.94;5030663;28;20465;-70
2023/01/12 04:14:48;;;;;;;5.50;1.95;;;8.50;90.60;;;7.64;80.30;100147.59;5031258;28;20406;-69
2023/01/12 04:17:18;;;;;;;4.05;1.75;;;8.40;90.70;;;7.64;80.99;100150.28;5030964;28;20417;-69
2023/01/12 04:19:46;;;;;;;4.07;1.77;;;8.50;90.80;;;7.65;81.50;100151.13;5031259;28;20914;-69
2023/01/12 04:25:02;;;;;;;3.97;1.67;;;8.40;91.30;;;7.57;82.84;100148.38;5031063;28;20744;-69
2023/01/12 04:27:30;;;;;;;3.70;1.75;;;8.30;91.80;;;7.57;83.10;100149.22;5031216;28;20403;-69
2023/01/12 04:29:58;;;;;;;3.08;1.70;;;8.40;92.10;;;7.51;83.33;100141.84;5031209;28;20489;-71
2023/01/12 04:32:26;;;;;;;5.10;2.22;;;8.30;92.20;;;7.51;83.46;100133.03;5030775;28;20410;-70
2023/01/12 04:34:54;;;;;;;3.60;1.70;;;8.30;92.30;;;7.48;83.55;100134.19;5031018;28;20414;-70
2023/01/12 04:37:24;;;;;;;3.53;1.60;;;8.30;92.40;;;7.43;84.02;100123.16;5030726;28;20987;-71
2023/01/12 04:39:52;;;;;;;5.63;1.90;;;8.20;92.70;;;7.40;84.67;100130.59;5030964;28;20410;-71
2023/01/12 04:45:07;;;;;;;6.18;1.80;;;8.20;93.10;;;7.31;85.26;100110.25;5030650;28;20413;-71
2023/01/12 04:47:35;;;;;;;4.70;1.80;;;8.10;93.30;;;7.29;85.44;100110.41;5030125;28;20403;-71
2023/01/12 04:50:04;;;;;;;3.55;1.95;;;8.10;93.40;;;7.27;85.70;100115.03;5030555;28;20427;-71
2023/01/12 04:52:34;;;;;;;5.10;2.00;;;8.10;93.50;;;7.27;85.61;100103.53;5030505;28;20413;-71
2023/01/12 04:55:02;;;;;;;4.03;1.60;;;8.10;93.60;;;7.25;85.54;100101.06;5015217;28;20906;-72
2023/01/12 04:57:31;;;;;;;2.93;1.50;;;8.00;93.60;;;7.26;85.74;100094.72;5010817;28;20412;-71
2023/01/12 04:59:59;;;;;;;4.30;1.90;;;8.00;93.50;;;7.28;85.45;100094.56;5010790;28;20412;-74
2023/01/12 05:02:28;;;;;;;3.75;1.50;;;8.10;93.40;;;7.27;85.42;100096.41;5011274;28;20770;-72
2023/01/12 05:04:56;;;;;;;2.63;1.60;;;8.10;93.50;;;7.27;85.41;100099.06;5010940;28;20419;-71
2023/01/12 05:07:24;;;;;;;3.38;1.52;;;8.10;93.40;;;7.31;85.12;100095.09;5010500;28;20404;-70
2023/01/12 05:12:39;;;;;;;3.13;1.60;;;8.10;93.50;;;7.31;85.16;100080.94;5010361;28;20416;-71
2023/01/12 05:15:08;;;;;;;3.95;1.67;;;8.10;93.40;;;7.30;85.32;100080.09;5010590;28;20416;-71
2023/01/12 05:17:36;;;;;;;3.70;1.85;;;8.10;93.40;;;7.31;85.29;100079.13;5010264;28;20413;-70
2023/01/12 05:20:05;;;;;;;3.70;1.67;;;8.10;93.40;;;7.30;85.65;100081.94;5010290;28;20404;-70
2023/01/12 05:22:34;;;;;;;3.38;1.50;;;8.10;93.50;;;7.27;85.74;100072.44;5009639;28;20416;-71
2023/01/12 05:25:03;;;;;;;3.58;1.63;;;8.10;93.70;;;7.26;86.31;100065.44;5010108;28;20439;-71
2023/01/12 05:27:32;;;;;;;4.50;1.80;;;8.10;94.00;;;7.25;85.96;100071.78;5010159;28;20408;-73
2023/01/12 05:30:00;;;;;;;4.65;2.13;;;8.10;93.90;;;7.24;85.98;100054.13;5009983;28;20436;-71
2023/01/12 05:32:28;;;;;;;5.00;1.88;;;8.00;93.80;;;7.25;86.06;100058.47;5009777;28;20408;-71
2023/01/12 05:34:56;;;;;;;4.97;2.65;;;8.00;93.80;;;7.21;86.70;100057.09;5010033;28;20492;-71
2023/01/12 05:37:24;;;;;;;5.28;2.40;;;8.00;94.10;;;7.21;86.43;100049.09;5009931;28;20416;-71
2023/01/12 05:39:52;;;;;;;4.40;1.95;;;8.00;94.10;;;7.24;86.32;100035.47;5010142;28;20410;-72
2023/01/12 05:45:10;;;;;;;4.10;2.20;;;8.10;94.00;;;7.21;86.19;100019.81;5009937;28;20409;-70
2023/01/12 05:47:38;;;;;;;5.97;2.40;;;8.00;94.10;;;7.21;86.50;100024.31;5009615;28;20408;-70
2023/01/12 05:50:07;;;;;;;4.32;2.08;;;8.00;94.00;;;7.21;86.03;100017.16;5010102;28;20435;-69
2023/01/12 05:52:35;;;;;;;3.90;1.90;;;8.00;93.90;;;7.23;85.98;100014.31;5009706;28;20409;-71
2023/01/12 05:55:03;;;;;;;3.97;1.95;;;8.10;93.90;;;7.22;86.15;100010.00;5025029;28;20494;-72
2023/01/12 05:57:33;;;;;;;4.30;1.70;;;8.00;93.90;;;7.25;85.85;100009.69;5029090;28;20902;-69
2023/01/12 06:00:01;;;;;;;3.67;1.77;;;8.00;93.70;;;7.26;85.62;100003.38;5029185;28;21052;-71
2023/01/12 06:02:29;;;;;;;3.35;1.70;;;8.10;93.60;;;7.27;85.58;99999.72;5029561;28;20419;-72
2023/01/12 06:04:57;;;;;;;4.13;2.10;;;8.00;93.50;;;7.27;85.51;100005.88;5029273;28;20457;-72
2023/01/12 06:07:25;;;;;;;4.47;1.80;;;8.10;93.60;;;7.30;84.98;100002.91;5028896;28;20913;-69
2023/01/12 06:09:53;;;;;;;3.42;1.70;;;8.10;93.40;;;7.28;85.60;100007.56;5029231;28;20426;-71
2023/01/12 06:15:10;;;;;;;2.33;1.50;;;8.10;93.20;;;7.33;85.21;99993.78;5029340;28;20413;-73
2023/01/12 06:17:38;;;;;;;2.85;1.40;;;8.10;93.30;;;7.35;84.68;99997.94;5029385;28;20407;-70
2023/01/12 06:20:08;;;;;;;4.03;1.63;;;8.10;93.10;;;7.37;84.36;100001.28;5029285;28;20403;-70
2023/01/12 06:22:38;;;;;;;3.15;1.70;;;8.10;93.10;;;7.32;85.26;99984.94;5029285;28;20418;-68
2023/01/12 06:25:07;;;;;;;3.72;1.50;;;8.10;93.40;;;7.33;85.37;99981.28;5012940;28;20405;-69
2023/01/12 06:27:37;;;;;;;3.58;1.70;;;8.10;93.40;;;7.34;84.70;99977.63;5005647;28;20426;-69
2023/01/12 06:30:07;;;;;;;3.28;1.50;;;8.10;93.20;;;7.34;84.78;99968.81;4989472;28;20812;-69
2023/01/12 06:32:37;;;;;;;2.95;1.50;;;8.10;93.20;;;7.33;85.23;99967.97;4990002;28;20410;-70
2023/01/12 06:35:07;;;;;;;3.35;1.55;;;8.10;93.40;;;7.33;85.18;99965.31;4989835;28;20438;-70
2023/01/12 06:37:46;;;;;;;3.15;1.52;;;8.10;93.30;;;7.33;85.24;99962.63;4988973;28;20720;-72
2023/01/12 06:40:14;;;;;;;3.42;1.35;;;8.10;93.40;;;7.35;85.00;99954.50;4988912;28;20399;-72
2023/01/12 06:42:42;;;;;;;3.75;1.45;;;8.20;93.30;;;7.37;84.90;99955.16;4988911;28;20426;-73
2023/01/12 06:45:11;;;;;;;3.67;1.48;;;8.20;93.30;;;7.41;84.74;99968.00;4989505;28;20476;-71
2023/01/12 06:47:48;;;;;;;2.58;1.77;;;8.20;93.10;;;7.38;84.89;99957.69;4989080;28;20433;-69
2023/01/12 06:50:17;;;;;;;2.90;1.90;;;8.20;93.20;;;7.44;84.15;99951.72;4989254;28;20473;-69
2023/01/12 06:52:45;;;;;;;2.85;1.60;;;8.20;92.90;;;7.48;83.87;99945.09;4989215;28;20411;-70
2023/01/12 06:55:16;;;;;;;3.00;1.48;;;8.30;92.80;;;7.48;84.05;99939.75;5022743;28;20407;-70
2023/01/12 06:57:44;;;;;;;2.40;1.50;;;8.30;92.80;;;7.48;84.40;99942.41;5028423;28;20402;-71
2023/01/12 07:00:14;;;;;;;3.38;1.40;;;8.30;92.80;;;7.50;83.98;99932.44;5028526;28;20486;-70
2023/01/12 07:02:42;;;;;;;3.20;1.60;;;8.30;92.60;;;7.49;83.95;99933.44;5028686;28;20399;-70
2023/01/12 07:05:11;;;;;;;3.15;1.80;;;8.30;92.70;;;7.48;84.07;99923.78;5028784;28;20410;-69
2023/01/12 07:07:39;;;;;;;4.05;1.80;;;8.30;92.80;;;7.48;84.20;99926.44;5027806;28;20883;-72
2023/01/12 07:10:09;;;;;;;3.00;1.40;;;8.30;92.80;;;7.55;83.09;99911.50;5028394;28;20450;-72
2023/01/12 07:12:37;;;;;;;3.08;1.52;;;8.40;92.30;;;7.50;83.46;99911.13;5028473;28;20403;-72
2023/01/12 07:15:07;;;;;;;3.10;1.50;;;8.30;92.50;;;7.50;83.63;99913.78;5028348;28;20414;-72
2023/01/12 07:17:36;;;;;;;3.47;1.30;;;8.30;92.60;;;7.54;82.87;99904.47;5027814;28;20915;-70
2023/01/12 07:20:05;;;;;;;3.22;1.48;;;8.30;92.30;;;7.54;83.46;99899.16;5027827;28;20814;-71
2023/01/12 07:22:35;;;;;;;2.28;1.40;;;8.30;92.30;;;7.56;82.98;99896.34;5027878;28;20909;-72
2023/01/12 07:25:03;;;;;;;2.40;1.50;;;8.30;92.20;;;7.56;82.79;99902.50;5028061;28;20764;-71
2023/01/12 07:27:31;;;;;;;2.75;1.40;;;8.30;92.10;;;7.61;82.24;99889.53;5027859;28;20414;-72
2023/01/12 07:29:59;;;;;;;2.75;1.40;;;8.40;91.80;;;7.57;82.60;99877.50;5028049;28;20439;-71
2023/01/12 07:32:28;;;;;;;3.20;1.40;;;8.40;91.90;;;7.55;82.42;99878.69;5027928;28;20834;-73
2023/01/12 07:34:56;;;;;;;2.63;1.50;;;8.30;92.00;;;7.59;82.41;99880.88;5028287;28;20415;-70
2023/01/12 07:37:24;;;;;;;1.85;1.30;;;8.40;91.90;;;7.60;82.22;99877.19;5027743;28;20411;-70
2023/01/12 07:39:54;;;;;;;3.22;1.65;;;8.40;91.70;;;7.64;81.75;99883.88;5027478;28;20419;-70
2023/01/12 07:42:25;;;;;;;2.08;1.20;;;8.40;91.50;;;7.66;81.93;99870.41;5027919;28;20407;-71
2023/01/12 07:44:53;;;;;;;3.33;1.30;;;8.40;91.50;;;7.63;82.21;99871.56;5027849;28;20411;-71
2023/01/12 07:47:21;;;;;;;1.93;1.20;;;8.40;91.70;;;7.62;81.74;99869.88;5031007;28;20406;-69
2023/01/12 07:49:49;;;;;;;2.85;1.50;;;8.40;91.60;;;7.58;82.57;99857.88;5031684;28;20876;-70
2023/01/12 07:52:17;;;;;;;2.00;1.30;;;8.40;91.90;;;7.63;82.26;99855.59;5031674;28;20883;-71
2023/01/12 07:54:45;;;;;;;2.95;1.30;;;8.40;91.70;;;7.61;82.42;99836.25;5018688;28;20409;-71
2023/01/12 07:57:15;;;;;;;3.22;1.42;;;8.40;91.80;;;7.59;82.60;99854.22;5011461;28;20412;-71
2023/01/12 07:59:43;;;;;;;1.88;1.38;;;8.40;91.80;;;7.63;82.14;99830.78;5012303;28;20400;-70
2023/01/12 08:02:15;;;;;;;2.65;1.40;;;8.40;91.80;;;7.59;82.12;99838.25;5011805;28;20400;-70
2023/01/12 08:04:43;;;;;;;3.42;1.70;;;8.40;91.90;;;7.57;82.50;99826.91;5012532;28;20408;-70
2023/01/12 08:07:12;;;;;;;2.35;1.45;;;8.40;92.00;;;7.52;83.50;99826.59;5011287;28;20783;-70
2023/01/12 08:09:40;;;;;;;2.78;1.50;;;8.30;92.30;;;7.53;83.32;99824.75;5011697;28;20400;-70
2023/01/12 08:12:08;;;;;;;2.38;1.30;;;8.30;92.30;;;7.51;82.95;99830.22;5011769;28;20423;-71
2023/01/12 08:14:41;;;;;;;4.03;1.60;;;8.30;92.30;;;7.47;83.58;99823.56;5011849;28;20405;-70
2023/01/12 08:17:17;;;;;;;2.17;1.40;;;8.20;92.50;;;7.50;83.79;99819.75;5011405;28;20427;-72
2023/01/12 08:19:54;;;;;;;2.72;1.60;;;8.30;92.50;;;7.52;83.08;99826.59;5011515;28;20902;-73
2023/01/12 08:22:30;;;;;;;2.47;1.50;;;8.30;92.40;;;7.49;83.72;99824.25;5011287;28;20560;-73
2023/01/12 08:25:05;;;;;;;2.20;1.50;;;8.30;92.60;;;7.52;83.07;99817.75;5011632;28;20416;-71
2023/01/12 08:27:37;;;;;;;2.55;1.30;;;8.30;92.30;;;7.57;82.89;99807.44;5011039;28;20885;-72
2023/01/12 08:30:09;;;;;;;3.40;1.50;;;8.30;92.10;;;7.56;82.74;99817.28;5011155;28;20773;-73
2023/01/12 08:32:38;;;;;;;1.80;1.02;;;8.40;92.10;;;7.54;83.20;99824.56;5009965;28;20412;-73
2023/01/12 08:35:08;;;;;;;2.03;1.33;;;8.40;92.20;;;7.54;83.15;99813.91;5011151;28;20417;-71
2023/01/12 08:37:36;;;;;;;3.85;1.40;;;8.30;92.20;;;7.52;83.45;99813.25;5011234;28;20412;-71
2023/01/12 08:40:07;;;;;;;2.80;1.33;;;8.30;92.30;;;7.55;82.77;99804.09;5010980;28;20409;-71
2023/01/12 08:42:35;;;;;;;2.42;1.33;;;8.40;92.20;;;7.52;83.16;99799.94;5011242;28;20463;-71
2023/01/12 08:45:08;;;;;;;2.28;1.23;;;8.30;92.20;;;7.52;83.17;99793.78;5011365;28;20604;-73
2023/01/12 08:47:39;;;;;;;2.20;1.43;;;8.30;92.20;;;7.51;82.98;99782.28;5011051;28;20404;-71
2023/01/12 08:50:08;;;;;;;2.50;1.35;;;8.30;92.30;;;7.56;82.52;99809.28;5011050;28;20409;-71
2023/01/12 08:52:37;;;;;;;2.72;1.40;;;8.30;92.00;;;7.57;82.51;99788.78;5010821;28;20428;-71
2023/01/12 08:55:06;;;;;;;2.33;1.27;;;8.30;92.10;;;7.57;82.56;99797.59;5026314;28;20411;-71
2023/01/12 08:57:34;;;;;;;3.65;1.10;;;8.40;92.00;;;7.70;81.54;99794.47;5029083;28;20403;-71
2023/01/12 09:00:05;;;;;;;2.63;1.33;;;8.50;91.50;;;7.72;81.77;99794.31;5030892;28;20490;-69
2023/01/12 09:02:34;;;;;;;2.40;1.30;;;8.50;91.40;;;7.69;81.95;99766.16;5030570;28;20945;-68
2023/01/12 09:05:03;;;;;;;1.50;1.00;;;8.50;91.50;;;7.68;81.91;99776.97;5030606;28;20568;-69
2023/01/12 09:07:31;;;;;;;2.17;1.15;;;8.50;91.60;;;7.75;81.45;99788.63;5030350;28;20410;-68
2023/01/12 09:09:59;;;;;;;3.13;1.50;;;8.50;91.40;;;7.75;81.63;99809.97;5030853;28;20403;-68
2023/01/12 09:12:28;;;;;;;2.45;1.50;;;8.50;91.40;;;7.72;82.04;99816.44;5030813;28;20426;-69
2023/01/12 09:14:56;;;;;;;2.60;1.60;;;8.50;91.50;;;7.74;81.80;99803.78;5030865;28;20414;-69
2023/01/12 09:17:25;;;;;;;2.92;1.77;;;8.50;91.50;;;7.82;81.69;99792.31;5030547;28;20406;-69
2023/01/12 09:19:54;;;;;;;2.55;1.70;;;8.60;91.30;;;7.82;81.83;99789.66;5030362;28;20411;-74
2023/01/12 09:22:22;;;;;;;2.88;1.63;;;8.60;91.40;;;7.81;81.83;99801.31;5030293;28;20407;-71
2023/01/12 09:24:50;;;;;;;3.17;1.90;;;8.60;91.50;;;7.84;81.46;99793.00;5030339;28;20422;-71
2023/01/12 09:27:18;;;;;;;2.15;1.42;;;8.60;91.40;;;7.92;80.78;99779.66;5030066;28;20649;-73
2023/01/12 09:29:46;;;;;;;2.92;1.75;;;8.70;91.10;;;7.92;80.80;99791.16;5030050;28;21131;-71
2023/01/12 09:32:14;;;;;;;2.50;1.40;;;8.70;91.10;;;7.91;81.20;99794.00;5030173;28;20430;-71
2023/01/12 09:34:48;;;;;;;2.40;1.60;;;8.70;91.20;;;7.92;81.35;99800.97;5029756;28;20477;-73
2023/01/12 09:37:18;;;;;;;3.13;1.40;;;8.70;91.20;;;7.91;81.73;99788.66;5029764;28;20407;-71
2023/01/12 09:39:46;;;;;;;2.40;1.13;;;8.70;91.20;;;7.94;81.09;99793.66;5029870;28;20406;-71
2023/01/12 09:48:03;;;;;;;1.98;1.10;;;8.80;91.20;;;8.04;81.03;99794.31;4996135;28;20399;-71
2023/01/12 09:50:36;;;;;;;1.85;0.95;;;8.80;91.00;;;8.03;80.90;99805.97;5029652;28;20417;-71
2023/01/12 09:53:18;;;;;;;1.98;1.10;;;8.80;91.10;;;8.06;80.77;99813.66;5029249;28;20415;-71
2023/01/12 09:56:01;;;;;;;1.75;1.10;;;8.80;91.30;;;8.03;81.79;99797.97;4989900;28;20403;-72
2023/01/12 09:58:45;;;;;;;1.02;0.80;;;8.80;91.20;;;8.06;81.32;99793.16;4990192;28;20402;-74
2023/01/12 10:01:17;;;;;;;1.70;1.00;;;8.90;91.30;;;8.06;81.47;99797.66;4989984;28;20402;-73
2023/01/12 10:04:00;;;;;;;1.15;0.85;;;8.90;91.20;;;8.06;81.51;99806.47;4990003;28;20496;-71
2023/01/12 10:06:29;;;;;;;1.73;1.00;;;8.80;91.30;;;8.03;81.82;99803.31;4990032;28;20433;-71
2023/01/12 10:09:02;;;;;;;1.50;1.10;;;8.80;91.60;;;8.05;82.20;99807.47;4989601;28;20406;-72
2023/01/12 10:11:41;;;;;;;1.90;1.20;;;8.80;91.60;;;8.08;81.98;99811.66;4989829;28;20426;-72
2023/01/12 10:14:48;;;;;;;1.65;1.20;;;8.90;91.60;;;8.09;81.66;99802.66;4990046;28;20402;-71
2023/01/12 10:17:31;;;;;;;2.78;1.30;;;8.90;91.50;;;8.10;82.38;99809.66;4989438;28;20413;-71
2023/01/12 10:20:22;;;;;;;1.33;0.90;;;8.90;91.70;;;8.08;82.05;99801.81;4989899;28;20441;-71
2023/01/12 10:22:53;;;;;;;1.73;1.05;;;8.90;91.70;;;8.10;82.77;99810.50;4989979;28;20407;-72
2023/01/12 10:25:36;;;;;;;1.55;1.10;;;8.90;91.90;;;8.09;82.50;99821.31;4989821;28;20407;-73
2023/01/12 10:28:15;;;;;;;1.83;1.33;;;8.90;91.90;;;8.07;82.63;99820.66;4989874;28;20398;-71
2023/01/12 10:30:44;;;;;;;1.30;0.90;;;8.90;92.00;;;8.03;83.64;99811.31;4989689;28;20411;-71
2023/01/12 10:33:16;;;;;;;1.92;1.25;;;8.80;92.30;;;7.97;83.87;99810.16;4989494;28;20768;-72
2023/01/12 10:35:57;;;;;;;1.25;1.10;;;8.80;92.60;;;7.97;84.08;99807.50;4989442;28;20410;-71
2023/01/12 10:38:33;;;;;;;1.45;1.05;;;8.70;92.70;;;7.99;84.25;99813.47;4988768;28;20414;-74
2023/01/12 10:41:16;;;;;;;1.38;0.90;;;8.80;92.70;;;7.98;84.21;99803.81;4989563;28;20505;-71
2023/01/12 10:44:05;;;;;;;1.98;1.08;;;8.80;92.70;;;8.00;84.71;99812.50;4989048;28;20926;-71
2023/01/12 10:46:34;;;;;;;1.40;1.00;;;8.80;92.80;;;8.04;83.84;99810.31;4989269;28;20489;-71
2023/01/12 10:49:18;;;;;;;0.85;0.80;;;8.80;92.70;;;8.07;83.85;99812.66;4989159;28;20505;-71
2023/01/12 10:51:54;;;;;;;2.05;1.60;;;8.80;92.70;;;8.07;83.81;99810.00;4989093;28;20924;-71
2023/01/12 10:54:27;;;;;;;1.20;1.10;;;8.90;92.70;;;8.11;83.98;99801.50;5009157;28;20438;-72
2023/01/12 10:57:01;;;;;;;1.17;0.95;;;8.90;92.60;;;8.14;83.99;99795.00;5028131;28;20417;-72
2023/01/12 10:59:33;;;;;;;1.70;1.10;;;8.90;92.60;;;8.16;84.04;99803.63;5028379;28;21064;-73
2023/01/12 11:02:15;;;;;;;2.22;1.20;;;8.90;92.50;;;8.16;84.23;99798.31;5028643;28;20407;-72
2023/01/12 11:04:46;;;;;;;1.20;1.10;;;8.90;92.70;;;8.18;84.57;99812.31;5028319;28;20415;-73
2023/01/12 11:07:18;;;;;;;1.00;0.90;;;8.90;92.80;;;8.24;84.61;99800.97;5028094;28;20399;-71
2023/01/12 11:09:46;;;;;;;1.83;1.30;;;9.00;92.80;;;8.23;84.41;99804.63;5028291;28;20402;-71
2023/01/12 11:12:28;;;;;;;1.10;1.00;;;9.00;93.30;;;8.22;84.78;99802.97;5028409;28;20517;-64
2023/01/12 11:15:15;;;;;;;1.13;1.00;;;9.00;93.00;;;8.21;85.15;99798.66;5028313;28;20403;-66
2023/01/12 11:17:58;;;;;;;1.88;1.10;;;9.00;93.20;;;8.25;84.93;99800.00;5009421;28;20408;-76
2023/01/12 11:20:36;;;;;;;0.93;0.93;;;9.00;93.30;;;8.24;85.69;99805.47;5008006;28;20405;-74
2023/01/12 11:23:14;;;;;;;1.02;0.93;;;9.00;93.30;;;8.27;85.70;99810.47;5008341;28;20921;-73